createdAt,value
2023-02-14T00:01:21.890Z,9.83
2023-02-14T00:04:10.663Z,14.10
2023-02-14T00:07:01.205Z,13.97
2023-02-14T00:09:50.711Z,11.90
2023-02-14T00:12:39.714Z,13.50
2023-02-14T00:15:27.957Z,12.10
2023-02-14T00:18:18.427Z,11.23
2023-02-14T00:21:08.166Z,16.43
2023-02-14T00:23:58.544Z,13.30
2023-02-14T00:26:47.271Z,10.33
2023-02-14T00:29:36.322Z,11.87
2023-02-14T00:32:25.288Z,14.27
2023-02-14T00:35:15.485Z,9.80
2023-02-14T00:38:04.282Z,11.97
2023-02-14T00:40:54.565Z,13.43
2023-02-14T00:43:43.305Z,9.67
2023-02-14T00:46:32.384Z,10.27
2023-02-14T00:49:21.390Z,13.20
2023-02-14T00:52:10.255Z,15.60
2023-02-14T00:54:59.400Z,11.83
2023-02-14T00:57:49.556Z,11.70
2023-02-14T01:00:38.516Z,13.43
2023-02-14T01:03:27.943Z,11.27
2023-02-14T01:06:17.029Z,11.73
2023-02-14T01:09:06.524Z,13.70
2023-02-14T01:11:55.553Z,14.87
2023-02-14T01:14:45.648Z,13.07
2023-02-14T01:17:34.434Z,14.73
2023-02-14T01:20:23.261Z,12.53
2023-02-14T01:23:12.381Z,14.33
2023-02-14T01:26:05.049Z,14.33
2023-02-14T01:28:54.232Z,13.93
2023-02-14T01:31:45.195Z,14.93
2023-02-14T01:34:34.643Z,13.83
2023-02-14T01:37:23.326Z,14.23
2023-02-14T01:40:15.419Z,10.63
2023-02-14T01:43:05.220Z,15.43
2023-02-14T01:45:54.060Z,15.07
2023-02-14T01:48:44.493Z,13.93
2023-02-14T01:51:35.940Z,17.17
2023-02-14T01:54:27.136Z,17.00
2023-02-14T01:57:20.454Z,14.70
2023-02-14T02:00:28.719Z,13.77
2023-02-14T02:03:18.923Z,20.50
2023-02-14T02:06:14.733Z,13.27
2023-02-14T02:09:10.751Z,13.47
2023-02-14T02:11:59.776Z,18.10
2023-02-14T02:14:49.863Z,15.77
2023-02-14T02:17:46.768Z,15.67
2023-02-14T02:21:01.840Z,16.07
2023-02-14T02:24:20.617Z,17.20
2023-02-14T02:27:33.306Z,14.33
2023-02-14T02:30:41.101Z,20.20
2023-02-14T02:34:08.660Z,16.37
2023-02-14T02:37:31.067Z,15.30
2023-02-14T02:40:37.138Z,19.63
2023-02-14T02:43:40.339Z,15.70
2023-02-14T02:46:49.143Z,15.03
2023-02-14T02:50:02.830Z,17.60
2023-02-14T02:53:04.067Z,16.73
2023-02-14T02:56:16.628Z,15.03
2023-02-14T02:59:18.297Z,14.50
2023-02-14T03:02:16.113Z,16.50
2023-02-14T03:05:07.185Z,17.47
2023-02-14T03:07:57.612Z,18.63
2023-02-14T03:10:46.835Z,17.70
2023-02-14T03:13:54.584Z,13.77
2023-02-14T03:16:55.696Z,16.47
2023-02-14T03:20:11.251Z,13.20
2023-02-14T03:23:10.038Z,17.17
2023-02-14T03:26:07.541Z,17.53
2023-02-14T03:29:02.906Z,17.03
2023-02-14T03:31:58.904Z,18.87
2023-02-14T03:34:54.805Z,15.17
2023-02-14T03:37:50.190Z,14.97
2023-02-14T03:40:44.126Z,16.80
2023-02-14T03:43:40.407Z,16.17
2023-02-14T03:46:32.771Z,16.77
2023-02-14T03:49:28.175Z,15.47
2023-02-14T03:52:18.534Z,17.17
2023-02-14T03:55:09.686Z,14.30
2023-02-14T03:58:07.543Z,20.17
2023-02-14T04:01:02.772Z,14.97
2023-02-14T04:03:53.922Z,16.13
2023-02-14T04:06:42.922Z,16.23
2023-02-14T04:09:32.004Z,17.00
2023-02-14T04:12:35.801Z,16.87
2023-02-14T04:15:28.150Z,14.33
2023-02-14T04:18:34.489Z,17.20
2023-02-14T04:21:23.400Z,16.27
2023-02-14T04:24:12.583Z,17.63
2023-02-14T04:27:21.186Z,16.43
2023-02-14T04:30:12.657Z,15.77
2023-02-14T04:33:02.952Z,19.17
2023-02-14T04:35:51.820Z,20.57
2023-02-14T04:38:40.599Z,14.47
2023-02-14T04:41:29.325Z,16.13
2023-02-14T04:44:18.195Z,19.17
2023-02-14T04:47:07.980Z,14.03
2023-02-14T04:49:58.290Z,23.47
2023-02-14T04:52:47.150Z,15.37
2023-02-14T04:55:35.858Z,18.23
2023-02-14T04:58:24.581Z,17.23
2023-02-14T05:01:13.775Z,16.87
2023-02-14T05:04:02.690Z,17.57
2023-02-14T05:06:52.712Z,17.17
2023-02-14T05:09:41.408Z,19.97
2023-02-14T05:12:30.065Z,14.03
2023-02-14T05:15:18.924Z,17.47
2023-02-14T05:18:07.998Z,18.03
2023-02-14T05:20:57.343Z,18.07
2023-02-14T05:23:48.017Z,15.27
2023-02-14T05:26:37.201Z,21.60
2023-02-14T05:29:26.456Z,20.50
2023-02-14T05:32:15.509Z,18.93
2023-02-14T05:35:04.347Z,19.23
2023-02-14T05:37:53.071Z,18.13
2023-02-14T05:40:47.980Z,18.40
2023-02-14T05:43:36.683Z,21.53
2023-02-14T05:46:25.358Z,20.20
2023-02-14T05:49:14.534Z,17.93
2023-02-14T05:52:03.498Z,18.20
2023-02-14T05:54:53.880Z,22.73
2023-02-14T05:57:44.488Z,21.73
2023-02-14T06:00:33.419Z,21.87
2023-02-14T06:03:22.059Z,18.67
2023-02-14T06:06:10.900Z,16.77
2023-02-14T06:08:59.615Z,18.47
2023-02-14T06:11:48.675Z,20.50
2023-02-14T06:14:39.292Z,16.13
2023-02-14T06:17:28.031Z,21.47
2023-02-14T06:20:16.893Z,18.90
2023-02-14T06:23:05.804Z,100.87
2023-02-14T06:25:54.491Z,59.50
2023-02-14T06:28:43.740Z,22.17
2023-02-14T06:31:34.397Z,18.47
2023-02-14T06:34:23.094Z,19.77
2023-02-14T06:37:12.590Z,18.53
2023-02-14T06:40:01.921Z,19.93
2023-02-14T06:42:50.791Z,22.77
2023-02-14T06:45:43.936Z,18.80
2023-02-14T06:48:34.283Z,18.00
2023-02-14T06:51:23.248Z,20.70
2023-02-14T06:54:12.269Z,17.67
2023-02-14T06:57:01.364Z,18.10
2023-02-14T06:59:50.123Z,21.37
2023-02-14T07:02:39.192Z,23.23
2023-02-14T07:05:29.848Z,16.10
2023-02-14T07:08:18.612Z,20.73
2023-02-14T07:11:07.613Z,18.90
2023-02-14T07:13:56.650Z,22.17
2023-02-14T07:16:45.388Z,18.40
2023-02-14T07:19:34.289Z,20.13
2023-02-14T07:22:24.906Z,23.00
2023-02-14T07:25:14.019Z,22.13
2023-02-14T07:28:03.734Z,22.73
2023-02-14T07:30:52.647Z,21.20
2023-02-14T07:33:41.394Z,21.67
2023-02-14T07:36:30.189Z,24.47
2023-02-14T07:39:20.417Z,25.70
2023-02-14T07:42:09.225Z,19.90
2023-02-14T07:44:57.897Z,24.00
2023-02-14T07:47:46.571Z,22.57
2023-02-14T07:50:35.375Z,23.70
2023-02-14T07:53:24.746Z,21.47
2023-02-14T07:56:15.165Z,21.13
2023-02-14T07:59:04.343Z,21.40
2023-02-14T08:01:53.511Z,19.07
2023-02-14T08:04:42.297Z,22.53
2023-02-14T08:07:31.447Z,23.20
2023-02-14T08:10:20.432Z,20.60
2023-02-14T08:13:10.696Z,21.27
2023-02-14T08:16:09.735Z,18.73
2023-02-14T08:18:58.902Z,24.70
2023-02-14T08:21:47.789Z,25.07
2023-02-14T08:24:36.836Z,19.20
2023-02-14T08:27:25.577Z,15.87
2023-02-14T08:30:17.140Z,20.87
2023-02-14T08:33:09.655Z,22.90
2023-02-14T08:35:58.499Z,24.87
2023-02-14T08:38:48.664Z,21.67
2023-02-14T08:41:37.600Z,19.70
2023-02-14T08:44:27.041Z,22.73
2023-02-14T08:47:17.420Z,23.17
2023-02-14T08:50:08.265Z,20.53
2023-02-14T08:52:57.301Z,19.63
2023-02-14T08:55:46.371Z,23.77
2023-02-14T08:58:36.338Z,21.20
2023-02-14T09:01:25.181Z,18.97
2023-02-14T09:04:15.747Z,24.20
2023-02-14T09:07:06.412Z,70.50
2023-02-14T09:09:55.226Z,49.20
2023-02-14T09:12:44.118Z,22.00
2023-02-14T09:15:33.831Z,20.37
2023-02-14T09:18:22.557Z,19.93
2023-02-14T09:21:15.115Z,19.80
2023-02-14T09:24:04.481Z,22.17
2023-02-14T09:26:53.388Z,19.20
2023-02-14T09:29:42.508Z,21.07
2023-02-14T09:32:31.637Z,21.87
2023-02-14T09:35:20.625Z,20.57
2023-02-14T09:38:22.954Z,20.30
2023-02-14T09:41:39.976Z,24.27
2023-02-14T09:44:34.872Z,17.83
2023-02-14T09:47:34.424Z,21.97
2023-02-14T09:50:30.678Z,20.13
2023-02-14T09:53:27.999Z,22.77
2023-02-14T09:56:22.624Z,25.30
2023-02-14T09:59:20.817Z,22.23
2023-02-14T10:02:28.522Z,22.83
2023-02-14T10:05:22.161Z,25.80
2023-02-14T10:08:28.646Z,20.57
2023-02-14T10:11:21.571Z,25.17
2023-02-14T10:14:14.997Z,20.57
2023-02-14T10:17:10.976Z,20.47
2023-02-14T10:20:03.621Z,19.47
2023-02-14T10:23:01.211Z,20.77
2023-02-14T10:25:58.958Z,21.73
2023-02-14T10:28:49.402Z,19.20
2023-02-14T10:31:45.592Z,22.97
2023-02-14T10:34:40.357Z,21.00
2023-02-14T10:37:43.150Z,20.53
2023-02-14T10:41:03.329Z,19.10
2023-02-14T10:44:02.398Z,19.40
2023-02-14T10:46:56.655Z,20.50
2023-02-14T10:49:51.167Z,21.90
2023-02-14T10:52:44.232Z,21.77
2023-02-14T10:55:44.675Z,22.77
2023-02-14T10:58:38.123Z,18.10
2023-02-14T11:01:27.240Z,21.67
2023-02-14T11:04:18.070Z,19.47
2023-02-14T11:07:14.246Z,18.77
2023-02-14T11:10:03.635Z,22.20
2023-02-14T11:12:52.660Z,22.30
2023-02-14T11:15:51.024Z,18.80
2023-02-14T11:18:41.129Z,19.27
2023-02-14T11:21:39.374Z,34.00
2023-02-14T11:24:31.917Z,18.10
2023-02-14T11:27:21.323Z,20.40
2023-02-14T11:30:19.911Z,21.63
2023-02-14T11:33:14.059Z,18.63
2023-02-14T11:36:05.300Z,20.53
2023-02-14T11:39:07.680Z,16.60
2023-02-14T11:41:58.391Z,19.40
2023-02-14T11:44:58.762Z,17.77
2023-02-14T11:47:47.521Z,22.27
2023-02-14T11:50:39.957Z,21.70
2023-02-14T11:53:31.380Z,20.70
2023-02-14T11:56:22.294Z,20.07
2023-02-14T11:59:14.210Z,18.13
2023-02-14T12:02:12.481Z,17.97
2023-02-14T12:05:05.154Z,20.50
2023-02-14T12:07:56.847Z,19.37
2023-02-14T12:10:45.588Z,18.03
2023-02-14T12:13:35.070Z,19.33
2023-02-14T12:16:28.366Z,21.77
2023-02-14T12:19:21.843Z,19.83
2023-02-14T12:22:14.387Z,19.87
2023-02-14T12:25:15.489Z,20.60
2023-02-14T12:28:11.719Z,19.60
2023-02-14T12:31:01.025Z,18.20
2023-02-14T12:33:50.681Z,18.10
2023-02-14T12:36:54.059Z,17.37
2023-02-14T12:39:58.038Z,20.60
2023-02-14T12:43:02.766Z,19.07
2023-02-14T12:46:12.826Z,17.67
2023-02-14T12:49:31.162Z,19.30
2023-02-14T12:52:42.393Z,23.08
2023-02-14T12:55:58.912Z,14.63
2023-02-14T12:59:01.765Z,21.23
2023-02-14T13:02:31.390Z,22.08
2023-02-14T13:05:27.391Z,19.27
2023-02-14T13:08:31.061Z,18.67
2023-02-14T13:11:30.248Z,20.67
2023-02-14T13:14:40.520Z,19.80
2023-02-14T13:17:38.144Z,17.60
2023-02-14T13:20:42.208Z,19.10
2023-02-14T13:23:36.401Z,18.63
2023-02-14T13:26:31.376Z,19.23
2023-02-14T13:29:25.315Z,18.65
2023-02-14T13:32:17.769Z,20.23
2023-02-14T13:35:07.886Z,20.87
2023-02-14T13:37:59.211Z,20.50
2023-02-14T13:40:49.140Z,19.67
2023-02-14T13:43:56.546Z,18.58
2023-02-14T13:46:53.727Z,19.13
2023-02-14T13:49:49.688Z,19.63
2023-02-14T13:52:47.127Z,22.87
2023-02-14T13:55:37.547Z,19.73
2023-02-14T13:58:27.411Z,23.93
2023-02-14T14:01:32.668Z,20.73
2023-02-14T14:04:39.700Z,19.83
2023-02-14T14:07:31.088Z,18.03
2023-02-14T14:10:44.908Z,21.03
2023-02-14T14:13:55.855Z,19.53
2023-02-14T14:16:59.076Z,19.60
2023-02-14T14:19:50.460Z,18.33
2023-02-14T14:22:48.102Z,19.47
2023-02-14T14:25:39.496Z,24.10
2023-02-14T14:28:32.575Z,18.07
2023-02-14T14:31:22.286Z,19.10
2023-02-14T14:34:19.264Z,23.00
2023-02-14T14:37:34.426Z,20.83
2023-02-14T14:40:28.811Z,26.80
2023-02-14T14:43:22.673Z,22.83
2023-02-14T14:46:14.412Z,23.00
2023-02-14T14:49:05.905Z,21.53
2023-02-14T14:51:55.880Z,20.33
2023-02-14T14:54:46.295Z,23.27
2023-02-14T14:57:37.449Z,23.40
2023-02-14T15:00:29.405Z,22.57
2023-02-14T15:03:26.115Z,25.27
2023-02-14T15:06:21.733Z,24.77
2023-02-14T15:09:16.056Z,25.63
2023-02-14T15:12:24.607Z,28.53
2023-02-14T15:15:16.905Z,26.13
2023-02-14T15:18:08.059Z,28.73
2023-02-14T15:20:57.095Z,29.63
2023-02-14T15:23:47.094Z,39.73
2023-02-14T15:26:37.396Z,31.97
2023-02-14T15:29:33.646Z,26.70
2023-02-14T15:32:22.822Z,28.93
2023-02-14T15:35:14.890Z,26.07
2023-02-14T15:38:07.405Z,26.20
2023-02-14T15:40:56.772Z,26.80
2023-02-14T15:43:51.987Z,29.60
2023-02-14T15:46:43.942Z,29.53
2023-02-14T15:49:36.824Z,23.03
2023-02-14T15:52:25.809Z,29.33
2023-02-14T15:55:19.812Z,25.15
2023-02-14T15:58:16.033Z,29.00
2023-02-14T16:01:05.312Z,26.33
2023-02-14T16:03:58.797Z,25.77
2023-02-14T16:06:50.255Z,26.50
2023-02-14T16:09:38.975Z,29.90
2023-02-14T16:12:38.247Z,28.38
2023-02-14T16:15:28.514Z,32.40
2023-02-14T16:18:35.374Z,31.07
2023-02-14T16:21:28.155Z,33.57
2023-02-14T16:24:17.432Z,30.63
2023-02-14T16:27:08.999Z,28.43
2023-02-14T16:29:59.100Z,28.40
2023-02-14T16:32:53.811Z,27.63
2023-02-14T16:35:46.629Z,29.67
2023-02-14T16:38:43.149Z,30.27
2023-02-14T16:41:33.769Z,26.50
2023-02-14T16:44:22.762Z,29.87
2023-02-14T16:47:13.485Z,31.07
2023-02-14T16:50:02.549Z,32.80
2023-02-14T16:52:56.009Z,29.80
2023-02-14T16:55:46.221Z,29.50
2023-02-14T16:58:37.670Z,30.80
2023-02-14T17:01:27.199Z,33.77
2023-02-14T17:04:16.239Z,31.60
2023-02-14T17:07:06.089Z,32.57
2023-02-14T17:09:59.073Z,32.03
2023-02-14T17:12:50.355Z,33.40
2023-02-14T17:15:40.691Z,35.20
2023-02-14T17:18:32.390Z,35.93
2023-02-14T17:21:23.494Z,33.87
2023-02-14T17:24:12.301Z,38.00
2023-02-14T17:27:01.213Z,39.13
2023-02-14T17:29:52.099Z,39.80
2023-02-14T17:32:40.964Z,37.30
2023-02-14T17:35:30.153Z,38.40
2023-02-14T17:38:20.319Z,37.23
2023-02-14T17:41:13.720Z,36.23
2023-02-14T17:44:02.523Z,34.67
2023-02-14T17:46:54.912Z,37.43
2023-02-14T17:49:43.927Z,36.57
2023-02-14T17:52:33.361Z,38.67
2023-02-14T17:55:22.542Z,40.93
2023-02-14T17:58:11.315Z,39.30
2023-02-14T18:01:04.584Z,37.77
2023-02-14T18:03:58.262Z,39.57
2023-02-14T18:06:47.986Z,38.07
2023-02-14T18:09:37.567Z,38.63
2023-02-14T18:12:26.521Z,38.40
2023-02-14T18:15:15.324Z,41.60
2023-02-14T18:18:04.500Z,39.03
2023-02-14T18:20:57.036Z,42.83
2023-02-14T18:23:45.707Z,39.73
2023-02-14T18:26:36.686Z,42.73
2023-02-14T18:29:25.456Z,41.37
2023-02-14T18:32:14.337Z,40.57
2023-02-14T18:35:03.992Z,37.93
2023-02-14T18:37:54.119Z,41.77
2023-02-14T18:40:43.462Z,38.13
2023-02-14T18:43:32.571Z,38.73
2023-02-14T18:46:23.269Z,40.53
2023-02-14T18:49:13.456Z,42.20
2023-02-14T18:52:04.976Z,39.80
2023-02-14T18:54:59.517Z,40.13
2023-02-14T18:57:48.634Z,42.80
2023-02-14T19:00:37.645Z,36.00
2023-02-14T19:03:26.803Z,34.97
2023-02-14T19:06:15.745Z,37.73
2023-02-14T19:09:08.412Z,34.80
2023-02-14T19:12:00.393Z,38.00
2023-02-14T19:14:49.798Z,39.93
2023-02-14T19:17:42.508Z,40.53
2023-02-14T19:20:31.269Z,44.20
2023-02-14T19:23:21.933Z,37.60
2023-02-14T19:26:12.345Z,36.83
2023-02-14T19:29:07.946Z,38.80
2023-02-14T19:31:57.018Z,38.07
2023-02-14T19:34:46.190Z,39.47
2023-02-14T19:37:36.156Z,39.00
2023-02-14T19:40:25.157Z,38.60
2023-02-14T19:43:14.031Z,36.37
2023-02-14T19:46:06.170Z,37.10
2023-02-14T19:48:56.377Z,36.90
2023-02-14T19:51:46.315Z,37.93
2023-02-14T19:54:40.755Z,39.20
2023-02-14T19:57:29.639Z,40.50
2023-02-14T20:00:21.332Z,41.90
2023-02-14T20:03:11.881Z,42.50
2023-02-14T20:06:01.063Z,43.00
2023-02-14T20:08:50.418Z,35.30
2023-02-14T20:11:44.072Z,37.37
2023-02-14T20:14:49.879Z,38.47
2023-02-14T20:17:40.727Z,38.43
2023-02-14T20:20:52.227Z,39.93
2023-02-14T20:23:41.052Z,42.03
2023-02-14T20:26:31.058Z,42.10
2023-02-14T20:29:20.821Z,39.07
2023-02-14T20:32:10.032Z,38.00
2023-02-14T20:34:58.955Z,37.57
2023-02-14T20:37:49.177Z,39.13
2023-02-14T20:40:40.301Z,37.67
2023-02-14T20:43:29.667Z,37.47
2023-02-14T20:46:18.535Z,41.20
2023-02-14T20:49:07.506Z,35.67
2023-02-14T20:51:59.666Z,38.53
2023-02-14T20:54:49.972Z,41.03
2023-02-14T20:57:38.886Z,40.87
2023-02-14T21:00:28.600Z,40.87
2023-02-14T21:03:17.582Z,43.73
2023-02-14T21:06:08.832Z,43.13
2023-02-14T21:08:58.028Z,40.03
2023-02-14T21:11:48.688Z,41.00
2023-02-14T21:14:37.791Z,42.07
2023-02-14T21:17:27.218Z,41.40
2023-02-14T21:20:19.168Z,46.73
2023-02-14T21:23:08.803Z,45.60
2023-02-14T21:25:58.182Z,46.97
2023-02-14T21:28:49.154Z,49.40
2023-02-14T21:31:41.707Z,46.60
2023-02-14T21:34:30.921Z,49.03
2023-02-14T21:37:22.602Z,47.80
2023-02-14T21:40:12.026Z,46.73
2023-02-14T21:43:00.991Z,48.63
2023-02-14T21:45:58.066Z,49.13
2023-02-14T21:49:04.899Z,44.73
2023-02-14T21:51:54.396Z,46.57
2023-02-14T21:54:43.590Z,49.03
2023-02-14T21:57:33.495Z,44.97
2023-02-14T22:00:23.509Z,51.17
2023-02-14T22:03:13.556Z,49.07
2023-02-14T22:06:03.586Z,44.53
2023-02-14T22:08:55.124Z,46.83
2023-02-14T22:11:44.061Z,43.87
2023-02-14T22:14:32.715Z,49.70
2023-02-14T22:17:24.868Z,50.50
2023-02-14T22:20:16.145Z,48.83
2023-02-14T22:23:04.926Z,54.13
2023-02-14T22:25:53.679Z,48.30
2023-02-14T22:28:44.326Z,46.07
2023-02-14T22:31:36.281Z,47.23
2023-02-14T22:34:25.174Z,46.53
2023-02-14T22:37:15.690Z,44.33
2023-02-14T22:40:04.625Z,45.97
2023-02-14T22:42:53.370Z,46.80
2023-02-14T22:45:42.304Z,47.83
2023-02-14T22:48:32.225Z,51.47
2023-02-14T22:51:24.035Z,49.30
2023-02-14T22:54:15.966Z,50.37
2023-02-14T22:57:08.138Z,50.67
2023-02-14T22:59:57.570Z,47.63
2023-02-14T23:02:46.484Z,47.13
2023-02-14T23:05:38.190Z,47.30
2023-02-14T23:08:27.225Z,47.87
2023-02-14T23:11:20.291Z,48.03
2023-02-14T23:14:26.863Z,49.70
2023-02-14T23:17:34.735Z,58.63
2023-02-14T23:20:41.239Z,57.50
2023-02-14T23:23:32.621Z,48.87
2023-02-14T23:26:23.613Z,51.10
2023-02-14T23:29:12.480Z,54.77
2023-02-14T23:32:01.456Z,53.33
2023-02-14T23:34:50.356Z,51.83
2023-02-14T23:37:39.622Z,49.73
2023-02-14T23:40:28.474Z,49.03
2023-02-14T23:43:18.941Z,48.83
2023-02-14T23:46:07.868Z,48.70
2023-02-14T23:48:57.244Z,51.30
2023-02-14T23:51:47.104Z,47.37
2023-02-14T23:54:36.699Z,48.13
2023-02-14T23:57:25.475Z,46.33
